Time;durP1;ratioP1;P1;durP2;ratioP2;P2;SDS_P1;SDS_P2;PMS_P1;PMS_P2;Temp;Humidity;BMP_temperature;BMP_pressure;BME280_temperature;BME280_humidity;BME280_pressure;Samples;Min_cycle;Max_cycle;Signal;HPM_P1;HPM_P2
2023/10/11 00:00:24;0.00;0.00;0.62;0.00;0.00;0.62;4.83;3.53;;;27.30;32.90;;;;;;2252874;61;20359;-68
2023/10/11 00:03:16;0.00;0.00;0.62;0.00;0.00;0.62;3.93;3.53;;;27.30;32.90;;;;;;2252448;61;20382;-66
2023/10/11 00:06:04;0.00;0.00;0.62;0.00;0.00;0.62;4.90;4.00;;;27.30;32.90;;;;;;2249974;61;20590;-68
2023/10/11 00:08:50;0.00;0.00;0.62;0.00;0.00;0.62;4.37;3.20;;;27.30;32.90;;;;;;2252686;61;20395;-66
2023/10/11 00:11:38;0.00;0.00;0.62;0.00;0.00;0.62;6.70;4.03;;;27.30;32.90;;;;;;2252923;61;20394;-67
2023/10/11 00:14:23;0.00;0.00;0.62;0.00;0.00;0.62;7.70;4.27;;;27.20;32.90;;;;;;2249756;61;20778;-67
2023/10/11 00:17:09;0.00;0.00;0.62;0.00;0.00;0.62;5.17;3.97;;;27.30;32.90;;;;;;2252993;61;20835;-65
2023/10/11 00:19:57;0.00;0.00;0.62;0.00;0.00;0.62;4.73;3.60;;;27.20;32.80;;;;;;2252866;61;20776;-67
2023/10/11 00:22:42;0.00;0.00;0.62;0.00;0.00;0.62;4.87;3.83;;;27.20;32.80;;;;;;2252987;61;20387;-67
2023/10/11 00:25:27;0.00;0.00;0.62;0.00;0.00;0.62;5.23;4.00;;;27.20;32.80;;;;;;2252911;61;20378;-68
2023/10/11 00:28:14;0.00;0.00;0.62;0.00;0.00;0.62;4.57;3.83;;;27.20;32.80;;;;;;2252913;61;20438;-66
2023/10/11 00:31:00;0.00;0.00;0.62;0.00;0.00;0.62;6.13;4.13;;;27.20;32.80;;;;;;2252722;61;20366;-67
2023/10/11 00:33:49;0.00;0.00;0.62;0.00;0.00;0.62;3.63;3.20;;;27.20;32.80;;;;;;2253044;61;20402;-66
2023/10/11 00:36:34;0.00;0.00;0.62;0.00;0.00;0.62;4.33;3.63;;;27.20;32.80;;;;;;2252850;61;20367;-67
2023/10/11 00:39:18;0.00;0.00;0.62;0.00;0.00;0.62;5.13;3.80;;;27.20;32.80;;;;;;2252830;61;20363;-67
2023/10/11 00:42:03;0.00;0.00;0.62;0.00;0.00;0.62;6.00;4.37;;;27.20;32.70;;;;;;2252856;61;20928;-67
2023/10/11 00:44:49;0.00;0.00;0.62;0.00;0.00;0.62;4.60;3.60;;;27.20;32.70;;;;;;2252979;61;20915;-66
2023/10/11 00:47:40;0.00;0.00;0.62;0.00;0.00;0.62;5.30;4.33;;;27.20;32.70;;;;;;2252896;61;20513;-67
2023/10/11 00:50:26;0.00;0.00;0.62;0.00;0.00;0.62;4.30;3.50;;;27.20;32.70;;;;;;2252984;61;20463;-66
2023/10/11 00:53:12;0.00;0.00;0.62;0.00;0.00;0.62;4.50;3.53;;;27.20;32.70;;;;;;2249515;61;20366;-67
2023/10/11 00:55:57;0.00;0.00;0.62;0.00;0.00;0.62;4.43;3.97;;;27.20;32.70;;;;;;2252999;61;20411;-65
2023/10/11 00:58:43;0.00;0.00;0.62;0.00;0.00;0.62;4.30;3.10;;;27.20;32.70;;;;;;2249653;61;20422;-66
2023/10/11 01:01:33;0.00;0.00;0.62;0.00;0.00;0.62;4.23;3.70;;;27.20;32.60;;;;;;2249729;61;20391;-66
2023/10/11 01:04:18;0.00;0.00;0.62;0.00;0.00;0.62;4.03;3.37;;;27.20;32.60;;;;;;2249728;61;20367;-66
2023/10/11 01:07:05;0.00;0.00;0.62;0.00;0.00;0.62;4.70;3.90;;;27.20;32.60;;;;;;2249618;61;20390;-66
2023/10/11 01:09:50;0.00;0.00;0.62;0.00;0.00;0.62;5.50;4.00;;;27.20;32.60;;;;;;2249475;61;20366;-67
2023/10/11 01:12:41;0.00;0.00;0.62;0.00;0.00;0.62;6.00;4.20;;;27.20;32.60;;;;;;2249621;61;20383;-66
2023/10/11 01:15:26;0.00;0.00;0.62;0.00;0.00;0.62;5.47;4.43;;;27.20;32.60;;;;;;2252781;61;20454;-66
2023/10/11 01:18:12;0.00;0.00;0.62;0.00;0.00;0.62;3.87;3.30;;;27.20;32.60;;;;;;2252691;61;20463;-67
2023/10/11 01:20:59;0.00;0.00;0.62;0.00;0.00;0.62;5.50;3.87;;;27.20;32.60;;;;;;2275185;61;20883;-68
2023/10/11 01:23:44;0.00;0.00;0.62;0.00;0.00;0.62;4.47;3.63;;;27.20;32.50;;;;;;2248990;61;20379;-67
2023/10/11 01:26:30;0.00;0.00;0.62;0.00;0.00;0.62;5.10;3.70;;;27.20;32.50;;;;;;2249717;61;20770;-67
2023/10/11 01:29:15;0.00;0.00;0.62;0.00;0.00;0.62;4.13;3.00;;;27.20;32.50;;;;;;2252467;61;20418;-67
2023/10/11 01:31:59;0.00;0.00;0.62;0.00;0.00;0.62;4.30;3.43;;;27.20;32.40;;;;;;2252559;61;20394;-66
2023/10/11 01:34:44;0.00;0.00;0.62;0.00;0.00;0.62;4.50;3.83;;;27.10;32.30;;;;;;2252736;61;20418;-67
2023/10/11 01:37:41;0.00;0.00;0.62;0.00;0.00;0.62;4.57;3.40;;;27.10;32.30;;;;;;2249413;61;20366;-67
2023/10/11 01:40:26;0.00;0.00;0.62;0.00;0.00;0.62;5.00;3.70;;;27.10;32.30;;;;;;2249706;61;20414;-69
2023/10/11 01:43:11;0.00;0.00;0.62;0.00;0.00;0.62;4.33;3.30;;;27.10;32.20;;;;;;2249082;61;20410;-66
2023/10/11 01:45:56;0.00;0.00;0.62;0.00;0.00;0.62;4.13;3.23;;;27.10;32.20;;;;;;2252545;61;20374;-68
2023/10/11 01:48:41;0.00;0.00;0.62;0.00;0.00;0.62;4.70;3.40;;;27.10;32.10;;;;;;2252390;61;20466;-66
2023/10/11 01:51:29;0.00;0.00;0.62;0.00;0.00;0.62;4.77;3.47;;;27.10;32.10;;;;;;2256462;61;20394;-67
2023/10/11 01:54:16;0.00;0.00;0.62;0.00;0.00;0.62;5.50;3.60;;;27.10;32.10;;;;;;2256651;61;20378;-66
2023/10/11 01:57:01;0.00;0.00;0.62;0.00;0.00;0.62;7.63;3.83;;;27.10;32.10;;;;;;2256674;61;20413;-68
2023/10/11 01:59:46;0.00;0.00;0.62;0.00;0.00;0.62;5.13;3.60;;;27.10;32.10;;;;;;2256022;61;20838;-66
2023/10/11 02:02:35;0.00;0.00;0.62;0.00;0.00;0.62;7.23;4.10;;;27.10;32.10;;;;;;2256234;61;20389;-67
2023/10/11 02:05:21;0.00;0.00;0.62;0.00;0.00;0.62;4.37;3.33;;;27.10;32.10;;;;;;2256728;61;20401;-67
2023/10/11 02:08:06;0.00;0.00;0.62;0.00;0.00;0.62;5.50;3.50;;;27.10;32.10;;;;;;2256384;61;20443;-66
2023/10/11 02:10:52;0.00;0.00;0.62;0.00;0.00;0.62;5.50;3.67;;;27.10;32.00;;;;;;2253422;61;20385;-67
2023/10/11 02:13:39;0.00;0.00;0.62;0.00;0.00;0.62;4.37;3.80;;;27.10;32.00;;;;;;2256262;61;20358;-67
2023/10/11 02:16:24;0.00;0.00;0.62;0.00;0.00;0.62;4.60;3.50;;;27.10;32.00;;;;;;2253707;61;20883;-66
2023/10/11 02:19:09;0.00;0.00;0.62;0.00;0.00;0.62;4.40;3.20;;;27.10;32.00;;;;;;2256569;61;20360;-66
2023/10/11 02:21:54;0.00;0.00;0.62;0.00;0.00;0.62;5.03;3.40;;;27.10;32.00;;;;;;2256548;61;20385;-68
2023/10/11 02:24:38;0.00;0.00;0.62;0.00;0.00;0.62;4.93;2.90;;;27.10;31.90;;;;;;2253470;61;20794;-66
2023/10/11 02:27:25;0.00;0.00;0.62;0.00;0.00;0.62;7.43;3.60;;;27.10;31.90;;;;;;2256238;61;20343;-66
2023/10/11 02:30:13;0.00;0.00;0.62;0.00;0.00;0.62;5.87;4.00;;;27.00;31.90;;;;;;2255779;61;21005;-66
2023/10/11 02:33:01;0.00;0.00;0.62;0.00;0.00;0.62;4.63;3.40;;;27.00;31.90;;;;;;2518168;39;20633;31
2023/10/11 02:35:56;0.00;0.00;0.62;0.00;0.00;0.62;5.60;3.80;;;27.00;31.90;;;;;;2247943;61;20777;-67
2023/10/11 02:38:47;0.00;0.00;0.62;0.00;0.00;0.62;4.43;3.57;;;27.00;31.90;;;;;;2252465;61;20363;-67
2023/10/11 02:41:32;0.00;0.00;0.62;0.00;0.00;0.62;4.07;3.23;;;27.00;31.80;;;;;;2250857;61;20770;-69
2023/10/11 02:44:22;0.00;0.00;0.62;0.00;0.00;0.62;4.93;3.60;;;27.00;31.90;;;;;;2256494;61;20906;-66
2023/10/11 02:47:08;0.00;0.00;0.62;0.00;0.00;0.62;5.70;3.90;;;27.00;31.80;;;;;;2256468;61;20358;-67
2023/10/11 02:49:53;0.00;0.00;0.62;0.00;0.00;0.62;4.10;3.17;;;27.00;31.80;;;;;;2256301;61;20414;-66
2023/10/11 02:52:39;0.00;0.00;0.62;0.00;0.00;0.62;6.53;3.70;;;27.00;31.80;;;;;;2256640;61;20390;-67
2023/10/11 02:55:27;0.00;0.00;0.62;0.00;0.00;0.62;4.90;3.77;;;27.00;31.70;;;;;;2256777;61;20399;-67
2023/10/11 02:58:21;0.00;0.00;0.62;0.00;0.00;0.62;4.20;3.20;;;27.00;31.70;;;;;;2256195;61;20357;-66
2023/10/11 03:01:14;0.00;0.00;0.62;0.00;0.00;0.62;5.00;3.60;;;27.00;31.70;;;;;;2253266;61;20390;-67
2023/10/11 03:04:01;0.00;0.00;0.62;0.00;0.00;0.62;3.87;3.23;;;27.00;31.70;;;;;;2256064;61;20374;-67
2023/10/11 03:06:49;0.00;0.00;0.62;0.00;0.00;0.62;4.60;3.27;;;27.00;31.70;;;;;;2253250;61;20401;-67
2023/10/11 03:09:36;0.00;0.00;0.62;0.00;0.00;0.62;5.40;3.87;;;27.00;31.70;;;;;;2253103;61;20369;-65
2023/10/11 03:12:30;0.00;0.00;0.62;0.00;0.00;0.62;4.17;3.17;;;27.00;31.70;;;;;;2255852;61;20474;-67
2023/10/11 03:15:19;0.00;0.00;0.62;0.00;0.00;0.62;5.20;3.80;;;27.00;31.60;;;;;;2253349;61;20365;-67
2023/10/11 03:18:06;0.00;0.00;0.62;0.00;0.00;0.62;4.27;3.40;;;27.00;31.60;;;;;;2256482;61;20409;-67
2023/10/11 03:21:07;0.00;0.00;0.62;0.00;0.00;0.62;5.47;3.93;;;27.00;31.60;;;;;;2256194;61;20370;-66
2023/10/11 03:23:55;0.00;0.00;0.62;0.00;0.00;0.62;4.33;3.20;;;27.00;31.60;;;;;;2257061;61;20405;-66
2023/10/11 03:26:40;0.00;0.00;0.62;0.00;0.00;0.62;4.63;3.63;;;27.00;31.50;;;;;;2257232;61;20835;-67
2023/10/11 03:29:24;0.00;0.00;0.62;0.00;0.00;0.62;4.90;3.70;;;27.00;31.50;;;;;;2256523;61;20441;-67
2023/10/11 03:32:09;0.00;0.00;0.62;0.00;0.00;0.62;6.20;3.43;;;26.90;31.40;;;;;;2256834;61;20561;-71
2023/10/11 03:34:55;0.00;0.00;0.62;0.00;0.00;0.62;4.07;3.40;;;26.90;31.30;;;;;;2256724;61;20413;-66
2023/10/11 03:37:40;0.00;0.00;0.62;0.00;0.00;0.62;4.67;3.63;;;26.90;31.30;;;;;;2257105;61;20381;-67
2023/10/11 03:40:34;0.00;0.00;0.62;0.00;0.00;0.62;5.03;3.13;;;26.90;31.30;;;;;;2257163;61;20926;-66
2023/10/11 03:43:19;0.00;0.00;0.62;0.00;0.00;0.62;5.53;3.90;;;26.90;31.30;;;;;;2257189;61;20432;-66
2023/10/11 03:46:04;0.00;0.00;0.62;0.00;0.00;0.62;6.50;3.70;;;26.90;31.30;;;;;;2256791;61;20745;-67
2023/10/11 03:48:51;0.00;0.00;0.62;0.00;0.00;0.62;5.40;3.30;;;26.90;31.30;;;;;;2256920;61;20393;-67
2023/10/11 03:51:42;0.00;0.00;0.62;0.00;0.00;0.62;5.10;3.80;;;26.90;31.30;;;;;;2256959;61;20377;-67
2023/10/11 03:54:27;0.00;0.00;0.62;0.00;0.00;0.62;3.80;3.20;;;26.90;31.30;;;;;;2257420;61;20382;-67
2023/10/11 03:57:12;0.00;0.00;0.62;0.00;0.00;0.62;4.60;3.33;;;26.90;31.30;;;;;;2256903;61;20373;-66
2023/10/11 03:59:59;0.00;0.00;0.62;0.00;0.00;0.62;4.27;3.00;;;26.90;31.30;;;;;;2256990;61;20366;-66
2023/10/11 04:02:44;0.00;0.00;0.62;0.00;0.00;0.62;4.60;3.00;;;26.90;31.30;;;;;;2257050;61;20473;-67
2023/10/11 04:05:33;0.00;0.00;0.62;0.00;0.00;0.62;4.20;3.10;;;26.90;31.30;;;;;;2253765;61;20430;-66
2023/10/11 04:08:24;0.00;0.00;0.62;0.00;0.00;0.62;4.57;3.97;;;26.90;31.30;;;;;;2256904;61;20393;-66
2023/10/11 04:11:29;0.00;0.00;0.62;0.00;0.00;0.62;5.33;3.43;;;26.90;31.30;;;;;;2318623;39;20366;31
2023/10/11 04:14:23;0.00;0.00;0.62;0.00;0.00;0.62;5.53;3.83;;;26.90;31.30;;;;;;2262814;61;20375;-67
2023/10/11 04:17:14;0.00;0.00;0.62;0.00;0.00;0.62;5.03;3.43;;;26.90;31.30;;;;;;2261145;61;20357;-67
2023/10/11 04:20:18;0.00;0.00;0.62;0.00;0.00;0.62;6.23;3.17;;;26.90;31.30;;;;;;2260865;61;20373;-67
2023/10/11 04:23:10;0.00;0.00;0.62;0.00;0.00;0.62;4.37;3.30;;;26.80;31.20;;;;;;2264821;61;20411;-67
2023/10/11 04:25:56;0.00;0.00;0.62;0.00;0.00;0.62;4.37;2.93;;;26.80;31.20;;;;;;2265046;61;20359;-67
2023/10/11 04:28:41;0.00;0.00;0.62;0.00;0.00;0.62;4.83;3.07;;;26.80;31.20;;;;;;2264704;61;20414;-67
2023/10/11 04:31:31;0.00;0.00;0.62;0.00;0.00;0.62;6.43;3.87;;;26.80;31.20;;;;;;2264986;61;20426;-66
2023/10/11 04:34:16;0.00;0.00;0.62;0.00;0.00;0.62;5.10;3.40;;;26.80;31.20;;;;;;2264767;61;20361;-67
2023/10/11 04:37:06;0.00;0.00;0.62;0.00;0.00;0.62;6.47;4.40;;;26.80;31.20;;;;;;2265059;61;20387;-66
2023/10/11 04:39:51;0.00;0.00;0.62;0.00;0.00;0.62;5.20;3.73;;;26.80;31.30;;;;;;2264850;61;20419;-67
2023/10/11 04:42:38;0.00;0.00;0.62;0.00;0.00;0.62;5.00;3.73;;;26.80;31.20;;;;;;2261658;61;20923;-70
2023/10/11 04:45:29;0.00;0.00;0.62;0.00;0.00;0.62;5.00;3.80;;;26.80;31.30;;;;;;2265139;61;20507;-67
2023/10/11 04:48:15;0.00;0.00;0.62;0.00;0.00;0.62;4.50;3.80;;;26.80;31.20;;;;;;2264725;61;20792;-67
2023/10/11 04:51:04;0.00;0.00;0.62;0.00;0.00;0.62;4.40;4.00;;;26.80;31.20;;;;;;2265216;61;20516;-67
2023/10/11 04:53:58;0.00;0.00;0.62;0.00;0.00;0.62;6.83;4.63;;;26.80;31.30;;;;;;2264919;61;20368;-70
2023/10/11 05:05:28;0.00;0.00;0.62;0.00;0.00;0.62;7.77;4.20;;;26.80;31.20;;;;;;2247667;61;20414;-67
2023/10/11 05:08:23;0.00;0.00;0.62;0.00;0.00;0.62;5.70;5.10;;;26.80;31.20;;;;;;2248249;61;20418;-67
2023/10/11 05:11:18;0.00;0.00;0.62;0.00;0.00;0.62;7.77;4.50;;;26.80;31.20;;;;;;2264731;61;20431;-67
2023/10/11 05:23:05;0.00;0.00;0.62;0.00;0.00;0.62;6.13;4.00;;;26.80;31.10;;;;;;2260628;61;20920;-67
2023/10/11 05:25:58;0.00;0.00;0.62;0.00;0.00;0.62;4.57;3.60;;;26.80;31.00;;;;;;2260747;61;20357;-67
2023/10/11 05:28:59;0.00;0.00;0.62;0.00;0.00;0.62;6.27;4.03;;;26.80;31.00;;;;;;2260534;61;20416;-66
2023/10/11 05:32:19;0.00;0.00;0.62;0.00;0.00;0.62;5.80;4.20;;;26.70;31.00;;;;;;2349538;40;20445;31
2023/10/11 05:53:20;0.00;0.00;0.62;0.00;0.00;0.62;6.00;3.70;;;26.70;31.00;;;;;;2252679;61;20359;-68
2023/10/11 05:56:05;0.00;0.00;0.62;0.00;0.00;0.62;5.97;3.90;;;26.70;30.90;;;;;;2252526;61;20818;-67
2023/10/11 05:58:51;0.00;0.00;0.62;0.00;0.00;0.62;3.50;3.13;;;26.70;30.90;;;;;;2252509;61;20765;-67
2023/10/11 06:01:37;0.00;0.00;0.62;0.00;0.00;0.62;5.50;4.53;;;26.70;30.90;;;;;;2252631;61;20934;-68
2023/10/11 06:04:23;0.00;0.00;0.62;0.00;0.00;0.62;6.00;4.23;;;26.70;30.90;;;;;;2252560;61;20375;-66
2023/10/11 06:07:13;0.00;0.00;0.62;0.00;0.00;0.62;6.03;4.37;;;26.70;30.80;;;;;;2249493;61;20374;-70
2023/10/11 06:10:06;0.00;0.00;0.62;0.00;0.00;0.62;5.70;3.80;;;26.70;30.80;;;;;;2252363;61;20410;-70
2023/10/11 06:12:51;0.00;0.00;0.62;0.00;0.00;0.62;7.40;4.40;;;26.70;30.90;;;;;;2252448;61;20438;-70
2023/10/11 06:15:36;0.00;0.00;0.62;0.00;0.00;0.62;5.83;4.43;;;26.70;30.90;;;;;;2252515;61;20922;-68
2023/10/11 06:18:39;0.00;0.00;0.62;0.00;0.00;0.62;4.70;3.77;;;26.70;30.80;;;;;;2252248;61;20422;-67
2023/10/11 06:21:30;0.00;0.00;0.62;0.00;0.00;0.62;7.10;4.47;;;26.70;30.80;;;;;;2252407;61;20771;-67
2023/10/11 06:24:16;0.00;0.00;0.62;0.00;0.00;0.62;6.97;4.40;;;26.70;30.80;;;;;;2252441;61;20386;-67
2023/10/11 06:28:09;0.00;0.00;0.62;0.00;0.00;0.62;5.30;4.13;;;26.70;30.80;;;;;;2252444;61;20562;-68
2023/10/11 06:30:17;0.00;0.00;0.62;0.00;0.00;0.62;5.80;3.83;;;26.70;30.80;;;;;;2251931;61;20443;-68
2023/10/11 06:33:06;0.00;0.00;0.62;0.00;0.00;0.62;5.30;3.90;;;26.60;30.70;;;;;;2252219;61;20800;-71
2023/10/11 06:35:52;0.00;0.00;0.62;0.00;0.00;0.62;5.67;4.10;;;26.60;30.70;;;;;;2252522;61;20367;-68
2023/10/11 06:38:41;0.00;0.00;0.62;0.00;0.00;0.62;5.20;4.10;;;26.60;30.70;;;;;;2252325;61;20445;-66
2023/10/11 06:41:46;0.00;0.00;0.62;0.00;0.00;0.62;4.30;3.73;;;26.60;30.70;;;;;;2249289;61;20479;-66
2023/10/11 06:44:30;0.00;0.00;0.62;0.00;0.00;0.62;5.10;3.70;;;26.60;30.80;;;;;;2256605;61;20420;-67
2023/10/11 06:47:15;0.00;0.00;0.62;0.00;0.00;0.62;5.73;3.80;;;26.60;30.70;;;;;;2256562;61;20369;-67
2023/10/11 06:50:10;0.00;0.00;0.62;0.00;0.00;0.62;5.87;4.03;;;26.60;30.80;;;;;;2256311;61;20390;-68
2023/10/11 06:52:55;0.00;0.00;0.62;0.00;0.00;0.62;4.07;3.47;;;26.60;30.80;;;;;;2256471;61;20452;-67
2023/10/11 06:55:40;0.00;0.00;0.62;0.00;0.00;0.62;5.07;3.67;;;26.60;30.80;;;;;;2256485;61;20412;-67
2023/10/11 06:58:26;0.00;0.00;0.62;0.00;0.00;0.62;5.10;3.43;;;26.60;30.80;;;;;;2256352;61;20412;-67
2023/10/11 07:01:13;0.00;0.00;0.62;0.00;0.00;0.62;5.73;3.87;;;26.60;30.80;;;;;;2256703;61;20455;-68
2023/10/11 07:03:58;0.00;0.00;0.62;0.00;0.00;0.62;5.57;3.67;;;26.60;30.80;;;;;;2256572;61;20341;-66
2023/10/11 07:06:43;0.00;0.00;0.62;0.00;0.00;0.62;6.37;3.67;;;26.60;30.70;;;;;;2256389;61;20767;-68
2023/10/11 07:09:29;0.00;0.00;0.62;0.00;0.00;0.62;3.83;3.43;;;26.60;30.80;;;;;;2256212;61;20390;-66
2023/10/11 07:12:39;0.00;0.00;0.62;0.00;0.00;0.62;6.00;4.03;;;26.60;30.80;;;;;;2256305;61;20469;-68
2023/10/11 07:15:25;0.00;0.00;0.62;0.00;0.00;0.62;4.57;3.30;;;26.60;30.80;;;;;;2256551;61;20354;-67
2023/10/11 07:18:21;0.00;0.00;0.62;0.00;0.00;0.62;4.53;3.83;;;26.60;30.80;;;;;;2256156;61;20401;-67
2023/10/11 07:21:07;0.00;0.00;0.62;0.00;0.00;0.62;6.33;3.33;;;26.60;30.80;;;;;;2256512;61;20405;-67
2023/10/11 07:29:24;0.00;0.00;0.62;0.00;0.00;0.62;5.30;2.97;;;26.60;30.90;;;;;;2256163;61;20954;-68
2023/10/11 07:32:10;0.00;0.00;0.62;0.00;0.00;0.62;3.53;3.07;;;26.60;31.00;;;;;;2256092;61;20921;-68
2023/10/11 07:34:55;0.00;0.00;0.62;0.00;0.00;0.62;4.00;3.30;;;26.60;31.00;;;;;;2256273;61;20373;-67
2023/10/11 07:37:39;0.00;0.00;0.62;0.00;0.00;0.62;5.37;3.67;;;26.60;31.00;;;;;;2256379;61;20736;-66
2023/10/11 07:40:34;0.00;0.00;0.62;0.00;0.00;0.62;5.20;3.30;;;26.60;31.00;;;;;;2256335;61;20401;-66
2023/10/11 07:43:18;0.00;0.00;0.62;0.00;0.00;0.62;4.90;3.30;;;26.60;31.00;;;;;;2255831;61;20411;-67
2023/10/11 07:46:04;0.00;0.00;0.62;0.00;0.00;0.62;3.83;3.43;;;26.60;31.00;;;;;;2256323;61;20372;-66
2023/10/11 07:49:01;0.00;0.00;0.62;0.00;0.00;0.62;4.80;3.20;;;26.60;31.10;;;;;;2256066;61;20505;-66
2023/10/11 07:51:45;0.00;0.00;0.62;0.00;0.00;0.62;5.20;3.50;;;26.60;31.00;;;;;;2256218;61;20386;-67
2023/10/11 07:54:32;0.00;0.00;0.62;0.00;0.00;0.62;5.43;3.30;;;26.60;31.10;;;;;;2256366;61;20409;-67
2023/10/11 07:57:17;0.00;0.00;0.62;0.00;0.00;0.62;4.30;2.90;;;26.60;31.10;;;;;;2256486;61;20374;-66
2023/10/11 08:00:02;0.00;0.00;0.62;0.00;0.00;0.62;3.70;3.00;;;26.60;31.10;;;;;;2256174;61;20361;-67
2023/10/11 08:02:56;0.00;0.00;0.62;0.00;0.00;0.62;4.00;3.10;;;26.60;31.10;;;;;;2256095;61;20389;-66
2023/10/11 08:05:46;0.00;0.00;0.62;0.00;0.00;0.62;5.80;3.20;;;26.60;31.10;;;;;;2256536;61;20398;-65
2023/10/11 08:08:31;0.00;0.00;0.62;0.00;0.00;0.62;6.23;3.37;;;26.60;31.10;;;;;;2256050;61;20358;-66
2023/10/11 08:11:19;0.00;0.00;0.62;0.00;0.00;0.62;6.00;3.87;;;26.60;31.10;;;;;;2257035;61;20417;-67
2023/10/11 08:14:13;0.00;0.00;0.62;0.00;0.00;0.62;4.03;3.23;;;26.60;31.10;;;;;;2253840;61;20365;-66
2023/10/11 08:17:10;0.00;0.00;0.62;0.00;0.00;0.62;4.30;3.20;;;26.60;31.10;;;;;;2256530;61;20406;-68
2023/10/11 08:19:54;0.00;0.00;0.62;0.00;0.00;0.62;3.57;2.73;;;26.60;31.10;;;;;;2256701;61;20422;-66
2023/10/11 08:22:40;0.00;0.00;0.62;0.00;0.00;0.62;4.20;3.00;;;26.60;31.10;;;;;;2253718;61;20444;-65
2023/10/11 08:25:30;0.00;0.00;0.62;0.00;0.00;0.62;4.40;3.47;;;26.60;31.10;;;;;;2256992;61;20382;-67
2023/10/11 08:28:19;0.00;0.00;0.62;0.00;0.00;0.62;3.60;2.87;;;26.60;31.10;;;;;;2256888;61;20342;-67
2023/10/11 08:31:08;0.00;0.00;0.62;0.00;0.00;0.62;4.20;3.40;;;26.60;31.10;;;;;;2282490;40;20456;31
2023/10/11 08:33:53;0.00;0.00;0.62;0.00;0.00;0.62;3.57;2.87;;;26.60;31.10;;;;;;2258468;61;20373;-66
2023/10/11 08:36:38;0.00;0.00;0.62;0.00;0.00;0.62;5.40;3.13;;;26.60;31.10;;;;;;2256293;61;20967;-66
2023/10/11 08:39:41;0.00;0.00;0.62;0.00;0.00;0.62;4.20;2.77;;;26.60;31.10;;;;;;2256642;61;20402;-65
2023/10/11 08:42:30;0.00;0.00;0.62;0.00;0.00;0.62;4.10;3.03;;;26.60;31.10;;;;;;2256965;61;20455;-66
2023/10/11 08:45:24;0.00;0.00;0.62;0.00;0.00;0.62;4.70;3.37;;;26.60;31.10;;;;;;2257105;61;20358;-67
2023/10/11 08:48:11;0.00;0.00;0.62;0.00;0.00;0.62;3.70;2.60;;;26.70;31.20;;;;;;2256750;61;20351;-65
2023/10/11 08:50:57;0.00;0.00;0.62;0.00;0.00;0.62;3.30;2.70;;;26.70;31.20;;;;;;2267414;55;20362;31
2023/10/11 08:53:46;0.00;0.00;0.62;0.00;0.00;0.62;3.33;2.40;;;26.70;31.20;;;;;;2262204;61;20397;-67
2023/10/11 08:56:33;0.00;0.00;0.62;0.00;0.00;0.62;4.37;2.37;;;26.70;31.20;;;;;;2261049;61;20452;-67
2023/10/11 08:59:24;0.00;0.00;0.62;0.00;0.00;0.62;4.40;3.30;;;26.70;31.20;;;;;;2260424;61;20781;-66
2023/10/11 09:02:09;0.00;0.00;0.62;0.00;0.00;0.62;3.90;2.40;;;26.70;31.20;;;;;;2261889;61;20390;-67
2023/10/11 09:05:06;0.00;0.00;0.62;0.00;0.00;0.62;3.50;2.70;;;26.70;31.20;;;;;;2256834;61;20452;-69
2023/10/11 09:07:51;0.00;0.00;0.62;0.00;0.00;0.62;3.90;2.60;;;26.70;31.20;;;;;;2256571;61;20382;-65
2023/10/11 09:10:36;0.00;0.00;0.62;0.00;0.00;0.62;3.37;2.40;;;26.70;31.20;;;;;;2256709;61;20448;-66
2023/10/11 09:13:26;0.00;0.00;0.62;0.00;0.00;0.62;3.50;3.00;;;26.70;31.20;;;;;;2256749;61;20420;-66
2023/10/11 09:16:37;0.00;0.00;0.62;0.00;0.00;0.62;4.23;2.73;;;26.70;31.20;;;;;;2256377;61;20378;-67
2023/10/11 09:19:22;0.00;0.00;0.62;0.00;0.00;0.62;2.93;2.57;;;26.70;31.20;;;;;;2256558;61;20351;-66
2023/10/11 09:22:18;0.00;0.00;0.62;0.00;0.00;0.62;3.30;2.30;;;26.80;31.20;;;;;;2256733;61;20389;-66
2023/10/11 09:25:20;0.00;0.00;0.62;0.00;0.00;0.62;3.83;2.80;;;26.80;31.20;;;;;;2256644;61;20409;-66
2023/10/11 09:28:14;0.00;0.00;0.62;0.00;0.00;0.62;3.60;2.93;;;26.80;31.20;;;;;;2256498;61;20408;-66
2023/10/11 09:31:12;0.00;0.00;0.62;0.00;0.00;0.62;3.23;2.40;;;26.80;31.20;;;;;;2256754;61;20871;-66
2023/10/11 09:34:02;0.00;0.00;0.62;0.00;0.00;0.62;4.43;3.00;;;26.80;31.20;;;;;;2256656;61;20366;-66
2023/10/11 09:36:51;0.00;0.00;0.62;0.00;0.00;0.62;3.57;2.50;;;26.80;31.20;;;;;;2262046;61;20381;-65
2023/10/11 09:39:35;0.00;0.00;0.62;0.00;0.00;0.62;4.60;3.37;;;26.80;31.20;;;;;;2256470;61;20362;-67
2023/10/11 09:42:22;0.00;0.00;0.62;0.00;0.00;0.62;2.77;2.33;;;26.80;31.30;;;;;;2256815;61;20386;-66
2023/10/11 09:45:08;0.00;0.00;0.62;0.00;0.00;0.62;3.93;3.10;;;26.80;31.20;;;;;;2256520;61;20382;-68
2023/10/11 09:47:56;0.00;0.00;0.62;0.00;0.00;0.62;4.90;2.67;;;26.80;31.20;;;;;;2256158;61;20346;-65
2023/10/11 09:50:42;0.00;0.00;0.62;0.00;0.00;0.62;5.37;3.10;;;26.80;31.20;;;;;;2258811;61;20448;-67
2023/10/11 09:53:26;0.00;0.00;0.62;0.00;0.00;0.62;4.37;3.47;;;26.80;31.20;;;;;;2256609;61;20937;-67
2023/10/11 09:56:30;0.00;0.00;0.62;0.00;0.00;0.62;4.60;3.07;;;26.80;31.20;;;;;;2256780;61;20448;-67
2023/10/11 09:59:34;0.00;0.00;0.62;0.00;0.00;0.62;4.50;2.70;;;26.80;31.90;;;;;;2256602;61;20361;-66
2023/10/11 10:02:25;0.00;0.00;0.62;0.00;0.00;0.62;2.87;2.23;;;26.90;31.30;;;;;;2256587;61;20386;-66
2023/10/11 10:05:11;0.00;0.00;0.62;0.00;0.00;0.62;3.90;2.90;;;26.90;31.30;;;;;;2256261;61;20353;-66
2023/10/11 10:08:13;0.00;0.00;0.62;0.00;0.00;0.62;4.50;3.47;;;26.90;31.30;;;;;;2256203;61;20722;-66
2023/10/11 10:10:58;0.00;0.00;0.62;0.00;0.00;0.62;6.40;2.80;;;26.90;31.30;;;;;;2256685;61;20365;-65
2023/10/11 10:14:02;0.00;0.00;0.62;0.00;0.00;0.62;3.00;2.63;;;26.90;31.30;;;;;;2256666;61;20366;-65
2023/10/11 10:17:18;0.00;0.00;0.62;0.00;0.00;0.62;3.37;2.90;;;26.90;31.30;;;;;;2256186;61;21054;-66
2023/10/11 10:20:42;0.00;0.00;0.62;0.00;0.00;0.62;4.77;3.10;;;26.90;31.30;;;;;;2251334;61;20920;-65
2023/10/11 10:23:32;0.00;0.00;0.62;0.00;0.00;0.62;4.90;3.20;;;26.90;31.30;;;;;;2248734;61;20371;-64
2023/10/11 10:26:38;0.00;0.00;0.62;0.00;0.00;0.62;5.10;2.90;;;27.00;31.40;;;;;;2251567;61;20400;-66
2023/10/11 10:29:53;0.00;0.00;0.62;0.00;0.00;0.62;3.33;2.90;;;27.00;31.40;;;;;;2248270;61;20383;-65
2023/10/11 10:33:13;0.00;0.00;0.62;0.00;0.00;0.62;3.13;2.60;;;27.00;31.40;;;;;;2251229;61;20511;-66
2023/10/11 10:36:37;0.00;0.00;0.62;0.00;0.00;0.62;5.27;2.77;;;27.00;31.40;;;;;;2251435;61;20374;-66
2023/10/11 10:42:15;0.00;0.00;0.62;0.00;0.00;0.62;5.40;2.80;;;27.00;31.40;;;;;;2251559;61;20602;-65
2023/10/11 10:44:59;0.00;0.00;0.62;0.00;0.00;0.62;4.00;2.90;;;27.00;31.40;;;;;;2251266;61;20371;-66
2023/10/11 10:47:44;0.00;0.00;0.62;0.00;0.00;0.62;4.73;2.93;;;27.00;31.40;;;;;;2251543;61;20402;-65
2023/10/11 10:50:32;0.00;0.00;0.62;0.00;0.00;0.62;5.87;3.20;;;27.00;31.40;;;;;;2256730;61;20420;-66
2023/10/11 10:53:18;0.00;0.00;0.62;0.00;0.00;0.62;3.77;2.80;;;27.10;32.10;;;;;;2260182;61;20439;-66
2023/10/11 10:56:03;0.00;0.00;0.62;0.00;0.00;0.62;4.17;2.73;;;27.10;31.40;;;;;;2260534;61;20923;-65
2023/10/11 10:58:48;0.00;0.00;0.62;0.00;0.00;0.62;4.20;3.00;;;27.10;31.40;;;;;;2259621;61;20365;-65
2023/10/11 11:01:34;0.00;0.00;0.62;0.00;0.00;0.62;5.50;3.00;;;27.10;31.40;;;;;;2260579;61;20381;-66
2023/10/11 11:04:27;0.00;0.00;0.62;0.00;0.00;0.62;4.00;2.90;;;27.10;31.40;;;;;;2260680;61;20368;-64
2023/10/11 11:07:22;0.00;0.00;0.62;0.00;0.00;0.62;5.20;2.80;;;27.20;31.50;;;;;;2260410;61;20815;-66
2023/10/11 11:10:16;0.00;0.00;0.62;0.00;0.00;0.62;3.87;2.97;;;27.20;31.60;;;;;;2260156;61;20408;-66
2023/10/11 11:13:11;0.00;0.00;0.62;0.00;0.00;0.62;4.70;2.83;;;27.20;31.60;;;;;;2260503;61;20427;-65
2023/10/11 11:15:56;0.00;0.00;0.62;0.00;0.00;0.62;7.10;3.70;;;27.20;31.50;;;;;;2260659;61;20416;-66
2023/10/11 11:18:43;0.00;0.00;0.62;0.00;0.00;0.62;4.10;2.67;;;27.20;31.50;;;;;;2260079;61;20369;-65
2023/10/11 11:21:31;0.00;0.00;0.62;0.00;0.00;0.62;3.63;2.90;;;27.20;31.50;;;;;;2260262;61;20793;-65
2023/10/11 11:24:18;0.00;0.00;0.62;0.00;0.00;0.62;6.20;3.07;;;27.20;31.50;;;;;;2260502;61;20368;-65
2023/10/11 11:27:14;0.00;0.00;0.62;0.00;0.00;0.62;4.10;3.00;;;27.30;31.60;;;;;;2260590;61;20411;-66
2023/10/11 11:30:16;0.00;0.00;0.62;0.00;0.00;0.62;4.97;3.00;;;27.30;31.60;;;;;;2259915;61;20485;-66
2023/10/11 11:33:13;0.00;0.00;0.62;0.00;0.00;0.62;4.47;3.10;;;27.30;31.60;;;;;;2260306;61;20383;-65
2023/10/11 11:35:58;0.00;0.00;0.62;0.00;0.00;0.62;4.17;3.07;;;27.30;31.60;;;;;;2260207;61;20357;-66
2023/10/11 11:38:46;0.00;0.00;0.62;0.00;0.00;0.62;6.13;3.20;;;27.30;31.60;;;;;;2260216;61;20491;-66
2023/10/11 11:41:30;0.00;0.00;0.62;0.00;0.00;0.62;4.40;3.13;;;27.30;31.60;;;;;;2260409;61;20905;-66
2023/10/11 11:44:21;0.00;0.00;0.62;0.00;0.00;0.62;4.20;3.00;;;27.30;31.60;;;;;;2260372;61;20365;-65
2023/10/11 11:47:06;0.00;0.00;0.62;0.00;0.00;0.62;8.17;3.53;;;27.30;31.60;;;;;;2261089;61;20392;-66
2023/10/11 11:49:50;0.00;0.00;0.62;0.00;0.00;0.62;4.00;2.57;;;27.30;31.60;;;;;;2260835;61;20428;-67
2023/10/11 11:52:34;0.00;0.00;0.62;0.00;0.00;0.62;4.40;3.30;;;27.30;31.60;;;;;;2260946;61;20377;-68